• Join FlightAware (Why Join?)
  • Login
  • US Flag 
10:45PM EDT


 

Airport Tracker/Info


-or-


 

Live Flight TrackerFlight Track Log ✈ SLI208 ✈ 21-Sep-2013 ✈ MMMX / MEX - MMTC / TRC

Flight Track Log - Related Links

Times and Time Zones

All times are in EDT time to prevent confusion due to time zone crossing. See the SLI208 flight status page for this flight to view local times or setup timezone preferences in your user account.

Time Position Orientation Groundspeed Altitude Reporting Facility
EDT Latitude Longitude Course Direction KTS MPH feet Rate Location/Type
10:59PM 21.7176 -100.6326 328° Northwest  Level Estimated
11:00PM 21.7845 -100.6792 327° Northwest  Level Estimated
11:01PM 21.8514 -100.7259 327° Northwest  Level Estimated
11:02PM 21.9182 -100.7726 327° Northwest  Level Estimated
11:03PM 21.9851 -100.8193 327° Northwest  Level Estimated
11:04PM 22.0519 -100.8661 327° Northwest  Level Estimated
11:05PM 22.1187 -100.9130 327° Northwest  Level Estimated
11:06PM 22.1855 -100.9598 327° Northwest  Level Estimated
11:07PM 22.2523 -101.0068 327° Northwest  Level Estimated
11:08PM 22.3191 -101.0537 327° Northwest  Level Estimated
11:09PM 22.3858 -101.1008 327° Northwest  Level Estimated
11:10PM 22.4526 -101.1478 327° Northwest  Level Estimated
11:11PM 22.5193 -101.1949 327° Northwest  Level Estimated
11:12PM 22.5860 -101.2421 327° Northwest  Level Estimated
11:13PM 22.6527 -101.2893 327° Northwest  Level Estimated
11:14PM 22.7194 -101.3365 327° Northwest  Level Estimated
11:15PM 22.7861 -101.3838 327° Northwest  Level Estimated
11:16PM 22.8528 -101.4312 327° Northwest  Level Estimated
11:17PM 22.9194 -101.4786 327° Northwest  Level Estimated
11:18PM 22.9860 -101.5260 327° Northwest  Level Estimated
11:19PM 23.0527 -101.5735 327° Northwest  Level Estimated
11:20PM 23.1193 -101.6210 327° Northwest  Level Estimated
11:21PM 23.1859 -101.6686 327° Northwest  Level Estimated
11:22PM 23.2525 -101.7162 327° Northwest  Level Estimated
11:23PM 23.3190 -101.7639 327° Northwest  Level Estimated
11:24PM 23.3856 -101.8116 327° Northwest  Level Estimated
11:25PM 23.4521 -101.8593 327° Northwest  Level Estimated
11:26PM 23.5186 -101.9072 327° Northwest  Level Estimated
11:27PM 23.5851 -101.9550 327° Northwest  Level Estimated
11:28PM 23.6516 -102.0029 327° Northwest  Level Estimated
11:29PM 23.7181 -102.0509 327° Northwest  Level Estimated
11:30PM 23.7846 -102.0989 327° Northwest  Level Estimated
11:31PM 23.8510 -102.1469 327° Northwest  Level Estimated
11:32PM 23.9174 -102.1951 327° Northwest  Level Estimated
11:33PM 23.9839 -102.2432 326° Northwest  Level Estimated
11:34PM 24.0503 -102.2914 326° Northwest  Level Estimated
11:35PM 24.1166 -102.3397 326° Northwest  Level Estimated
11:36PM 24.1830 -102.3880 326° Northwest  Level Estimated
11:37PM 24.2494 -102.4363 326° Northwest  Level Estimated
11:38PM 24.3157 -102.4847 326° Northwest  Level Estimated
11:39PM 24.3820 -102.5332 326° Northwest  Level Estimated
11:40PM 24.4484 -102.5817 326° Northwest  Level Estimated
11:41PM 24.5147 -102.6302 326° Northwest  Level Estimated
11:42PM 24.5809 -102.6789 326° Northwest  Level Estimated
11:43PM 24.6472 -102.7275 326° Northwest  Level Estimated
11:44PM 24.7134 -102.7762 326° Northwest  Level Estimated
11:45PM 24.7797 -102.8250 326° Northwest  Level Estimated
11:46PM 24.8459 -102.8738 326° Northwest  Level Estimated
11:47PM 24.9121 -102.9227 326° Northwest  Level Estimated
11:48PM 24.9783 -102.9716 326° Northwest  Level Estimated
11:49PM 25.0445 -103.0206 326° Northwest  Level Estimated
11:50PM 25.1106 -103.0696 326° Northwest  Level Estimated
11:51PM 25.1767 -103.1187 326° Northwest  Level Estimated
11:52PM 25.2429 -103.1678 326° Northwest  Level Estimated
11:53PM 25.3090 -103.2170 326° Northwest  Level Estimated
11:54PM 25.3750 -103.2662 326° Northwest  Level Estimated
11:55PM 25.4411 -103.3155 326° Northwest  Level Estimated
11:56PM 25.5072 -103.3649 326° Northwest  Level Estimated
11:57PM 25.5683 -103.4106 326° Northwest  Level Estimated
11:58PM 25.5683 -103.4106 234° Southwest  Level Estimated
11:59PM 25.5683 -103.4106 234° Southwest  Level Estimated
12:00AM 25.5683 -103.4106 234° Southwest  Level Estimated
12:01AM 25.5683 -103.4106 234° Southwest  Level Estimated
12:02AM 25.5683 -103.4106 234° Southwest  Level Estimated
12:03AM 25.5683 -103.4106 234° Southwest  Level Estimated
12:04AM 25.5683 -103.4106 234° Southwest  Level Estimated
12:05AM 25.5683 -103.4106 234° Southwest  Level Estimated
12:06AM 25.5683 -103.4106 234° Southwest  Level Estimated
12:07AM 25.5683 -103.4106 234° Southwest  Level Estimated
12:08AM 25.5683 -103.4106 234° Southwest  Level Estimated
12:09AM 25.5683 -103.4106 234° Southwest  Level Estimated
12:10AM 25.5683 -103.4106 234° Southwest  Level Estimated
12:11AM 25.5683 -103.4106 234° Southwest  Level Estimated
12:12AM 25.5683 -103.4106 234° Southwest  Level Estimated
12:13AM 25.5683 -103.4106 234° Southwest  Level Estimated